Time;durP1;ratioP1;P1;durP2;ratioP2;P2;SDS_P1;SDS_P2;PMS_P1;PMS_P2;Temp;Humidity;BMP_temperature;BMP_pressure;BME280_temperature;BME280_humidity;BME280_pressure;Samples;Min_cycle;Max_cycle;Signal;HPM_P1;HPM_P2
2021/01/12 00:00:27;;;;;;;17.73;9.93;;;1.30;43.30;;;;;;4966975;28;20234;-80
2021/01/12 00:02:55;;;;;;;14.00;9.07;;;1.40;43.10;;;;;;4967398;28;20776;-79
2021/01/12 00:05:22;;;;;;;17.83;10.30;;;1.40;43.30;;;;;;4970056;28;20242;-79
2021/01/12 00:07:50;;;;;;;16.35;9.85;;;1.50;42.80;;;;;;4965716;29;20214;-79
2021/01/12 00:10:18;;;;;;;15.57;9.25;;;1.50;42.80;;;;;;4976910;28;20260;-80
2021/01/12 00:12:44;;;;;;;14.20;8.70;;;1.60;42.90;;;;;;4964386;28;20238;-80
2021/01/12 00:15:11;;;;;;;12.88;7.75;;;1.70;43.00;;;;;;4991584;28;20189;-79
2021/01/12 00:17:38;;;;;;;14.43;10.07;;;1.70;43.00;;;;;;4992209;28;20780;-79
2021/01/12 00:20:06;;;;;;;13.70;8.70;;;1.70;43.00;;;;;;4979307;28;20228;-79
2021/01/12 00:22:33;;;;;;;14.68;9.23;;;1.80;43.10;;;;;;4978716;28;20374;-78
2021/01/12 00:25:00;;;;;;;12.55;8.98;;;1.80;43.10;;;;;;4967825;28;20214;-79
2021/01/12 00:27:26;;;;;;;14.52;9.30;;;1.80;43.10;;;;;;4958650;28;20213;-79
2021/01/12 00:29:53;;;;;;;16.25;9.35;;;1.80;43.10;;;;;;4968827;28;20296;-79
2021/01/12 00:32:20;;;;;;;16.73;9.45;;;1.80;43.10;;;;;;4973809;28;20213;-80
2021/01/12 00:34:47;;;;;;;15.55;9.38;;;1.90;43.20;;;;;;4968504;29;20212;-80
2021/01/12 00:37:17;;;;;;;15.93;9.15;;;1.90;43.20;;;;;;4964761;28;20769;-79
2021/01/12 00:39:43;;;;;;;13.20;8.68;;;1.80;43.10;;;;;;4977655;28;20229;-79
2021/01/12 00:42:11;;;;;;;14.38;9.45;;;1.90;43.20;;;;;;4975046;28;20225;-80
2021/01/12 00:44:38;;;;;;;14.10;9.38;;;1.90;43.20;;;;;;4970370;28;20205;-79
2021/01/12 00:47:06;;;;;;;12.90;8.93;;;1.80;43.10;;;;;;4973826;29;20261;-79
2021/01/12 00:49:32;;;;;;;15.65;9.90;;;1.80;43.80;;;;;;4967980;29;20273;-77
2021/01/12 00:51:59;;;;;;;15.68;9.85;;;1.90;44.30;;;;;;4958984;28;20226;-79
2021/01/12 00:54:26;;;;;;;11.13;8.43;;;1.90;44.40;;;;;;4961323;29;20293;-79
2021/01/12 00:56:54;;;;;;;15.13;9.75;;;1.90;44.50;;;;;;4966611;29;20209;-80
2021/01/12 00:59:21;;;;;;;15.25;9.43;;;2.00;44.80;;;;;;4971963;29;20230;-79
2021/01/12 01:01:48;;;;;;;15.60;9.40;;;1.90;44.80;;;;;;4990368;28;20223;-78
2021/01/12 01:04:17;;;;;;;14.23;9.13;;;1.80;44.90;;;;;;4997672;28;20243;-80
2021/01/12 01:06:44;;;;;;;14.55;9.90;;;1.90;45.30;;;;;;4996476;28;20241;-80
2021/01/12 01:09:12;;;;;;;12.20;8.50;;;1.90;45.20;;;;;;4969853;28;20234;-79
2021/01/12 01:11:42;;;;;;;12.55;9.07;;;1.90;45.20;;;;;;4960602;28;20253;-79
2021/01/12 01:14:08;;;;;;;15.27;8.43;;;1.90;45.20;;;;;;4963479;29;20213;-79
2021/01/12 01:16:36;;;;;;;15.60;9.27;;;2.00;45.70;;;;;;4976280;28;20229;-80
2021/01/12 01:19:03;;;;;;;12.50;8.23;;;2.00;45.70;;;;;;4987789;28;20232;-79
2021/01/12 01:21:30;;;;;;;10.82;7.85;;;2.00;46.10;;;;;;4999716;28;20229;-79
2021/01/12 01:23:56;;;;;;;15.88;8.48;;;2.00;46.50;;;;;;4990967;28;20319;-78
2021/01/12 01:26:23;;;;;;;12.40;8.45;;;2.00;46.60;;;;;;4980158;28;20205;-78
2021/01/12 01:28:50;;;;;;;11.73;7.50;;;2.10;46.90;;;;;;4980615;28;20236;-78
2021/01/12 01:31:16;;;;;;;13.52;8.50;;;2.10;46.90;;;;;;4981261;28;20296;-78
2021/01/12 01:33:45;;;;;;;13.40;8.63;;;2.00;47.10;;;;;;4977595;28;20231;-79
2021/01/12 01:36:12;;;;;;;13.00;8.23;;;2.10;47.20;;;;;;4978782;28;20206;-79
2021/01/12 01:38:39;;;;;;;13.02;8.35;;;2.10;47.50;;;;;;4982215;28;20231;-78
2021/01/12 01:41:07;;;;;;;14.07;8.85;;;2.10;47.30;;;;;;4999718;28;20193;-79
2021/01/12 01:43:34;;;;;;;13.02;8.30;;;2.10;47.30;;;;;;4999534;28;20213;-78
2021/01/12 01:46:01;;;;;;;13.90;7.95;;;2.10;47.10;;;;;;4999732;28;20200;-79
2021/01/12 01:48:27;;;;;;;14.13;8.50;;;2.10;47.00;;;;;;5000447;28;20225;-80
2021/01/12 01:50:54;;;;;;;14.13;8.40;;;2.10;47.10;;;;;;5000055;28;20220;-79
2021/01/12 01:53:22;;;;;;;13.68;7.90;;;2.10;47.30;;;;;;5000330;28;20197;-78
2021/01/12 01:55:52;;;;;;;10.07;7.63;;;2.10;46.70;;;;;;4997873;28;20198;-79
2021/01/12 01:58:18;;;;;;;12.35;8.30;;;2.10;46.40;;;;;;4992650;28;20276;-79
2021/01/12 02:00:47;;;;;;;15.45;8.82;;;2.10;46.60;;;;;;4987733;28;20244;-78
2021/01/12 02:03:17;;;;;;;12.77;7.53;;;2.10;46.70;;;;;;5000227;28;20272;-79
2021/01/12 02:05:50;;;;;;;12.70;8.82;;;2.20;46.90;;;;;;5000262;28;20240;-79
2021/01/12 02:08:23;;;;;;;14.20;8.35;;;2.10;47.00;;;;;;4997286;28;20197;-80
2021/01/12 02:10:50;;;;;;;12.60;8.15;;;2.10;47.50;;;;;;4995438;28;20348;-79
2021/01/12 02:13:21;;;;;;;10.35;7.78;;;2.10;47.50;;;;;;4992100;28;20209;-79
2021/01/12 02:15:48;;;;;;;13.23;8.30;;;2.10;47.70;;;;;;4987750;28;20220;-78
2021/01/12 02:18:16;;;;;;;13.02;8.13;;;2.10;48.10;;;;;;4986065;28;20201;-79
2021/01/12 02:20:44;;;;;;;11.43;7.57;;;2.20;48.20;;;;;;4986319;28;20221;-78
2021/01/12 02:23:13;;;;;;;11.00;7.15;;;2.10;48.10;;;;;;4989351;28;20755;-80
2021/01/12 02:25:42;;;;;;;11.02;7.72;;;2.20;48.20;;;;;;4995784;28;20265;-80
2021/01/12 02:28:10;;;;;;;12.60;8.05;;;2.20;48.20;;;;;;4983149;28;20203;-80
2021/01/12 02:30:38;;;;;;;14.18;7.10;;;2.20;48.20;;;;;;4975570;29;20269;-81
2021/01/12 02:33:05;;;;;;;10.95;7.88;;;2.20;48.20;;;;;;4973968;28;20663;-80
2021/01/12 02:35:35;;;;;;;11.07;7.35;;;2.20;48.20;;;;;;4960530;28;20305;-80
2021/01/12 02:38:03;;;;;;;12.40;7.15;;;2.20;48.10;;;;;;4969471;28;20219;-79
2021/01/12 02:40:31;;;;;;;14.60;8.20;;;2.20;47.80;;;;;;4979135;28;20309;-78
2021/01/12 02:42:58;;;;;;;13.82;9.18;;;2.20;47.40;;;;;;4978266;28;20242;-78
2021/01/12 02:45:25;;;;;;;12.73;7.80;;;2.10;47.50;;;;;;4979748;28;20236;-79
2021/01/12 02:47:52;;;;;;;14.10;8.50;;;2.10;47.50;;;;;;4977891;28;20217;-80
2021/01/12 02:50:19;;;;;;;15.18;8.55;;;2.10;47.20;;;;;;4978335;28;20252;-80
2021/01/12 02:52:46;;;;;;;12.82;8.63;;;2.00;47.50;;;;;;4998174;28;20208;-81
2021/01/12 02:55:13;;;;;;;12.65;8.43;;;2.00;47.60;;;;;;4998247;28;20774;-80
2021/01/12 02:57:40;;;;;;;13.02;8.38;;;2.10;47.80;;;;;;4997466;28;20205;-80
2021/01/12 03:00:09;;;;;;;11.98;8.40;;;2.00;47.80;;;;;;4994000;28;20293;-81
2021/01/12 03:02:36;;;;;;;15.10;9.27;;;2.00;48.00;;;;;;4978691;28;20220;-80
2021/01/12 03:05:04;;;;;;;12.35;8.05;;;2.10;48.10;;;;;;4979635;28;20771;-80
2021/01/12 03:07:30;;;;;;;13.07;7.95;;;2.10;48.10;;;;;;4979153;28;20301;-80
2021/01/12 03:09:57;;;;;;;14.60;8.77;;;2.10;48.10;;;;;;4988060;28;20240;-81
2021/01/12 03:12:23;;;;;;;11.55;7.30;;;2.00;48.00;;;;;;4998452;28;20274;-81
2021/01/12 03:14:50;;;;;;;11.88;8.73;;;2.10;48.10;;;;;;4998671;28;20192;-81
2021/01/12 03:17:18;;;;;;;14.10;8.73;;;2.10;48.10;;;;;;4997467;28;20184;-80
2021/01/12 03:19:44;;;;;;;14.23;8.75;;;2.00;48.00;;;;;;4998588;28;20221;-82
2021/01/12 03:22:11;;;;;;;12.80;7.85;;;2.10;48.20;;;;;;4997161;28;20229;-81
2021/01/12 03:24:37;;;;;;;13.20;8.85;;;2.00;48.00;;;;;;4999856;28;20257;-80
2021/01/12 03:27:05;;;;;;;14.85;9.45;;;2.10;48.10;;;;;;4998767;28;20264;-81
2021/01/12 03:29:31;;;;;;;11.27;7.43;;;2.10;48.00;;;;;;4992348;28;20244;-80
2021/01/12 03:31:58;;;;;;;14.02;8.40;;;2.10;48.10;;;;;;4979675;28;20296;-80
2021/01/12 03:34:26;;;;;;;12.45;8.10;;;2.10;48.10;;;;;;4972883;28;20241;-81
2021/01/12 03:36:53;;;;;;;11.95;7.97;;;2.10;47.90;;;;;;4961011;29;20377;-80
2021/01/12 03:39:19;;;;;;;14.32;8.00;;;2.10;47.80;;;;;;4960645;28;20257;-78
2021/01/12 03:41:46;;;;;;;12.63;7.80;;;2.20;47.80;;;;;;4960934;29;20209;-80
2021/01/12 03:44:12;;;;;;;15.77;7.22;;;2.20;47.70;;;;;;4965078;28;20276;-81
2021/01/12 03:46:39;;;;;;;15.50;7.75;;;2.20;47.40;;;;;;4968840;28;20298;-80
2021/01/12 03:49:06;;;;;;;9.90;7.30;;;2.20;47.10;;;;;;4967301;28;20701;-80
2021/01/12 03:51:34;;;;;;;11.50;7.50;;;2.20;47.40;;;;;;4982539;28;20216;-81
2021/01/12 03:54:00;;;;;;;11.45;6.88;;;2.20;47.50;;;;;;4996265;28;20240;-79
2021/01/12 03:56:26;;;;;;;12.82;7.63;;;2.20;47.30;;;;;;4988441;28;20369;-81
2021/01/12 03:58:53;;;;;;;13.60;7.57;;;2.20;47.50;;;;;;4982250;28;20611;-79
2021/01/12 04:01:19;;;;;;;12.00;7.05;;;2.20;47.50;;;;;;4968577;28;20265;-79
2021/01/12 04:03:46;;;;;;;9.88;6.05;;;2.20;47.50;;;;;;4963494;29;20226;-79
2021/01/12 04:06:16;;;;;;;12.75;8.07;;;2.20;47.90;;;;;;4965992;28;20277;-79
2021/01/12 04:08:44;;;;;;;12.57;7.13;;;2.20;48.20;;;;;;4966612;28;20221;-80
2021/01/12 04:11:12;;;;;;;8.52;6.18;;;2.30;48.30;;;;;;4975058;28;20201;-80
2021/01/12 04:13:38;;;;;;;9.38;6.68;;;2.30;48.40;;;;;;4985519;28;20201;-79
2021/01/12 04:16:05;;;;;;;13.13;6.40;;;2.40;48.40;;;;;;4985495;28;20229;-80
2021/01/12 04:18:32;;;;;;;7.82;5.63;;;2.50;48.50;;;;;;4976318;28;20198;-79
2021/01/12 04:20:58;;;;;;;7.88;5.82;;;2.50;48.90;;;;;;4982297;28;20217;-81
2021/01/12 04:23:24;;;;;;;10.10;6.38;;;2.50;49.40;;;;;;4976385;28;20234;-82
2021/01/12 04:25:52;;;;;;;11.98;6.32;;;2.50;49.60;;;;;;4982573;28;20216;-80
2021/01/12 04:28:19;;;;;;;9.95;6.35;;;2.50;50.00;;;;;;4995717;28;20267;-81
2021/01/12 04:30:45;;;;;;;11.80;7.40;;;2.50;50.50;;;;;;4990558;28;20210;-80
2021/01/12 04:33:12;;;;;;;11.50;6.60;;;2.50;50.70;;;;;;4978360;28;20241;-79
2021/01/12 04:35:38;;;;;;;9.90;6.38;;;2.40;50.80;;;;;;4979111;28;20265;-80
2021/01/12 04:38:05;;;;;;;9.63;5.90;;;2.40;51.40;;;;;;4996707;28;20200;-81
2021/01/12 04:40:31;;;;;;;11.98;5.82;;;2.40;52.60;;;;;;4988730;28;20292;-78
2021/01/12 04:42:59;;;;;;;8.68;6.30;;;2.40;53.10;;;;;;4977049;28;20257;-79
2021/01/12 04:45:26;;;;;;;13.60;6.65;;;2.30;53.40;;;;;;4980854;28;20294;-82
2021/01/12 04:47:53;;;;;;;12.10;7.72;;;2.30;54.90;;;;;;4992421;28;20233;-81
2021/01/12 04:50:19;;;;;;;13.35;6.75;;;2.30;55.70;;;;;;4984286;28;20281;-80
2021/01/12 04:52:47;;;;;;;8.80;6.43;;;2.30;57.20;;;;;;4963423;29;20274;-80
2021/01/12 04:55:15;;;;;;;11.20;5.88;;;2.30;57.70;;;;;;4967916;28;20225;-80
2021/01/12 04:57:42;;;;;;;9.82;6.25;;;2.30;59.20;;;;;;4983607;28;20276;-80
2021/01/12 05:00:14;;;;;;;9.45;5.97;;;2.20;60.10;;;;;;4991767;28;20225;-79
2021/01/12 05:02:40;;;;;;;9.98;6.47;;;2.20;61.90;;;;;;4978989;28;20206;-80
2021/01/12 05:05:08;;;;;;;10.55;6.25;;;2.20;62.00;;;;;;4980385;28;20298;-80
2021/01/12 05:07:38;;;;;;;12.57;6.30;;;2.10;62.50;;;;;;4979294;28;20213;-79
2021/01/12 05:10:14;;;;;;;9.50;6.25;;;2.10;62.80;;;;;;5001412;23;20309;-80
2021/01/12 05:12:41;;;;;;;10.63;6.15;;;2.10;63.60;;;;;;4965243;28;20213;-80
2021/01/12 05:15:11;;;;;;;11.82;7.75;;;2.10;63.80;;;;;;4968130;29;20245;-79
2021/01/12 05:17:38;;;;;;;11.65;7.15;;;2.10;64.60;;;;;;4981148;28;20201;-80
2021/01/12 05:20:07;;;;;;;9.88;6.05;;;2.00;65.50;;;;;;4996966;28;20256;-79
2021/01/12 05:22:40;;;;;;;9.70;6.05;;;2.00;66.10;;;;;;4993338;28;20222;-80
2021/01/12 05:25:20;;;;;;;12.13;7.28;;;2.00;67.50;;;;;;4969749;28;20233;-79
2021/01/12 05:27:52;;;;;;;11.38;7.57;;;1.90;68.80;;;;;;4970448;29;20190;-80
2021/01/12 05:30:25;;;;;;;10.35;7.15;;;1.90;70.40;;;;;;4970769;29;20226;-81
2021/01/12 05:32:52;;;;;;;11.23;6.50;;;1.90;71.10;;;;;;4968192;29;20229;-79
2021/01/12 05:35:19;;;;;;;10.82;6.68;;;1.80;72.60;;;;;;4982681;28;20245;-79
2021/01/12 05:37:45;;;;;;;10.70;7.55;;;1.80;74.50;;;;;;4980123;28;20260;-77
2021/01/12 05:40:12;;;;;;;17.08;8.07;;;1.80;75.60;;;;;;4963032;28;20240;-79
2021/01/12 05:42:39;;;;;;;13.57;7.07;;;1.70;77.30;;;;;;4961644;29;20230;-78
2021/01/12 05:45:07;;;;;;;15.70;8.00;;;1.70;78.70;;;;;;4970673;29;20257;-79
2021/01/12 05:47:34;;;;;;;13.38;7.20;;;1.70;80.00;;;;;;4970636;29;20203;-81
2021/01/12 05:50:01;;;;;;;11.90;7.28;;;1.60;81.10;;;;;;4983035;28;20229;-80
2021/01/12 05:52:27;;;;;;;14.77;7.38;;;1.60;82.70;;;;;;4984853;28;20220;-79
2021/01/12 05:55:04;;;;;;;11.15;7.13;;;1.60;83.40;;;;;;4981653;28;20214;-80
2021/01/12 05:57:31;;;;;;;15.68;6.95;;;1.70;83.20;;;;;;4981116;28;20212;-80
2021/01/12 06:00:04;;;;;;;13.68;7.70;;;1.70;83.40;;;;;;4975284;28;20275;-80
2021/01/12 06:02:32;;;;;;;9.73;6.18;;;1.70;84.00;;;;;;4974023;29;20256;-79
2021/01/12 06:05:00;;;;;;;12.88;7.22;;;1.70;84.00;;;;;;4966702;29;20578;-79
2021/01/12 06:07:27;;;;;;;12.50;7.15;;;1.70;84.50;;;;;;4973802;28;20214;-79
2021/01/12 06:09:56;;;;;;;13.57;7.43;;;1.70;84.40;;;;;;4997888;28;20308;-80
2021/01/12 06:12:36;;;;;;;11.57;7.25;;;1.70;84.50;;;;;;4997131;28;20219;-80
2021/01/12 06:15:05;;;;;;;10.13;6.72;;;1.70;84.20;;;;;;4988490;28;20200;-81
2021/01/12 06:17:33;;;;;;;12.40;7.05;;;1.70;84.00;;;;;;4989471;28;20225;-79
2021/01/12 06:20:04;;;;;;;9.85;6.43;;;1.70;84.90;;;;;;4979551;28;20325;-80
2021/01/12 06:22:38;;;;;;;11.98;7.40;;;1.80;84.50;;;;;;4975414;28;20215;-81
2021/01/12 06:25:07;;;;;;;9.55;6.13;;;1.80;84.70;;;;;;4977609;28;20201;-81
2021/01/12 06:27:35;;;;;;;9.07;5.90;;;1.80;85.10;;;;;;4979312;29;20218;-81
2021/01/12 06:30:04;;;;;;;10.82;6.63;;;1.80;85.60;;;;;;4964840;29;20230;-80
2021/01/12 06:32:32;;;;;;;12.13;7.15;;;1.80;86.20;;;;;;4988795;28;20213;-79
2021/01/12 06:35:02;;;;;;;10.10;6.53;;;1.80;86.90;;;;;;4995627;28;20241;-78
2021/01/12 06:37:33;;;;;;;10.60;6.95;;;1.80;86.90;;;;;;4980191;28;20754;-78
2021/01/12 06:40:03;;;;;;;11.27;6.93;;;1.70;88.40;;;;;;4981022;28;20233;-81
2021/01/12 06:42:30;;;;;;;8.15;5.47;;;1.70;89.60;;;;;;4971354;28;20277;-80
2021/01/12 06:44:58;;;;;;;7.53;5.38;;;1.70;90.20;;;;;;4967240;29;20269;-80
2021/01/12 06:47:27;;;;;;;7.93;5.50;;;1.70;90.80;;;;;;4963644;28;20217;-80
2021/01/12 06:50:07;;;;;;;8.55;5.82;;;1.70;91.20;;;;;;4972385;28;20225;-81
2021/01/12 06:52:42;;;;;;;11.48;7.00;;;1.70;91.70;;;;;;4968337;28;20223;-81
2021/01/12 06:55:10;;;;;;;10.45;6.45;;;1.70;92.10;;;;;;4968265;29;20196;-78
2021/01/12 06:57:38;;;;;;;9.35;5.97;;;1.70;92.20;;;;;;4977911;28;20245;-79
2021/01/12 07:00:09;;;;;;;12.35;6.68;;;1.70;92.80;;;;;;4978975;28;20229;-80
2021/01/12 07:02:35;;;;;;;10.80;6.75;;;1.70;93.20;;;;;;4987945;28;20253;-81
2021/01/12 07:05:13;;;;;;;17.92;7.05;;;1.70;93.50;;;;;;4983861;28;20313;-80
2021/01/12 07:07:43;;;;;;;10.85;6.55;;;1.70;93.90;;;;;;4978017;28;20217;-80
2021/01/12 07:10:12;;;;;;;10.27;6.53;;;1.70;94.50;;;;;;4978689;28;20243;-81
2021/01/12 07:12:41;;;;;;;10.10;6.85;;;1.70;94.80;;;;;;4967685;28;20232;-80
2021/01/12 07:15:10;;;;;;;10.85;5.97;;;1.70;95.10;;;;;;4960259;29;20209;-81
2021/01/12 07:17:42;;;;;;;8.63;6.35;;;1.70;95.60;;;;;;4985434;28;20213;-81
2021/01/12 07:20:18;;;;;;;10.80;6.80;;;1.60;95.90;;;;;;4995430;28;20235;-80
2021/01/12 07:22:55;;;;;;;13.05;7.05;;;1.60;96.20;;;;;;4983272;28;20229;-81
2021/01/12 07:25:25;;;;;;;9.45;6.63;;;1.70;96.60;;;;;;4975729;28;20297;-80
2021/01/12 07:28:06;;;;;;;8.93;5.68;;;1.60;97.00;;;;;;4975670;28;20199;-81
2021/01/12 07:30:35;;;;;;;11.45;6.65;;;1.70;97.30;;;;;;4962292;29;20260;-80
2021/01/12 07:33:03;;;;;;;9.18;5.95;;;1.70;97.50;;;;;;4967190;28;20224;-79
2021/01/12 07:35:33;;;;;;;9.73;5.82;;;1.70;97.80;;;;;;4967652;28;20236;-79
2021/01/12 07:38:00;;;;;;;11.27;6.55;;;1.70;98.00;;;;;;4969025;28;20190;-80
2021/01/12 07:40:29;;;;;;;10.23;5.68;;;1.80;98.10;;;;;;4969774;28;20287;-82
2021/01/12 07:42:58;;;;;;;11.32;6.85;;;1.80;98.20;;;;;;4973845;28;20209;-80
2021/01/12 07:45:28;;;;;;;10.25;6.10;;;1.80;98.20;;;;;;4975408;29;20253;-81
2021/01/12 07:47:59;;;;;;;7.88;5.95;;;1.80;98.50;;;;;;4970835;28;20200;-80
2021/01/12 07:50:35;;;;;;;9.25;5.97;;;1.90;98.70;;;;;;4972987;28;20210;-80
2021/01/12 07:53:05;;;;;;;8.68;4.65;;;1.90;98.70;;;;;;4971715;28;20299;-80
2021/01/12 07:55:40;;;;;;;9.18;5.90;;;1.90;98.70;;;;;;4971953;29;20552;-80
2021/01/12 07:58:07;;;;;;;10.15;6.25;;;1.90;98.80;;;;;;4970840;29;20210;-79
2021/01/12 08:00:34;;;;;;;7.40;5.10;;;1.90;98.90;;;;;;4989181;28;20225;-81
2021/01/12 08:03:04;;;;;;;7.60;5.40;;;2.00;99.10;;;;;;4973329;28;20249;-80
2021/01/12 08:05:36;;;;;;;8.05;5.47;;;2.00;99.10;;;;;;4968248;29;20257;-80
2021/01/12 08:08:13;;;;;;;8.55;5.78;;;2.00;99.00;;;;;;4962505;29;20218;-80
2021/01/12 08:10:44;;;;;;;7.80;4.97;;;2.10;99.20;;;;;;4964009;29;20247;-80
2021/01/12 08:13:13;;;;;;;9.18;5.50;;;2.10;99.00;;;;;;4970165;29;20269;-79
2021/01/12 08:15:43;;;;;;;9.10;5.47;;;2.10;99.00;;;;;;4969552;28;20206;-79
2021/01/12 08:18:11;;;;;;;9.15;5.70;;;2.10;99.10;;;;;;4969837;29;20206;-80
2021/01/12 08:20:40;;;;;;;9.45;5.60;;;2.00;99.10;;;;;;4982756;28;20225;-78
2021/01/12 08:23:10;;;;;;;7.43;4.97;;;2.00;99.20;;;;;;4997808;28;20247;-80
2021/01/12 08:25:37;;;;;;;6.75;4.55;;;2.00;99.20;;;;;;4980038;28;20201;-80
2021/01/12 08:28:14;;;;;;;7.18;4.63;;;2.00;99.20;;;;;;4979069;28;20208;-81
2021/01/12 08:30:46;;;;;;;9.00;5.20;;;2.10;99.20;;;;;;4981137;28;20214;-81
2021/01/12 08:33:20;;;;;;;4.75;3.63;;;2.10;99.30;;;;;;4981857;28;20216;-80
2021/01/12 08:35:52;;;;;;;6.22;3.42;;;2.10;99.20;;;;;;4981612;28;20197;-79
2021/01/12 08:38:22;;;;;;;4.57;3.75;;;2.10;99.20;;;;;;4980184;28;20206;-78
2021/01/12 08:40:50;;;;;;;7.32;4.85;;;2.10;99.20;;;;;;4980308;28;20230;-78
2021/01/12 08:43:19;;;;;;;6.72;4.25;;;2.10;99.20;;;;;;4980268;28;20952;-78
2021/01/12 08:46:03;;;;;;;8.23;4.55;;;2.00;99.20;;;;;;4981874;28;20202;-80
2021/01/12 08:48:30;;;;;;;5.60;4.32;;;2.00;99.20;;;;;;4978366;28;20206;-80
2021/01/12 08:50:57;;;;;;;5.43;3.85;;;2.00;99.40;;;;;;4981301;29;20216;-79
2021/01/12 08:53:28;;;;;;;5.57;4.28;;;2.00;99.50;;;;;;4977284;28;20210;-80
2021/01/12 08:56:04;;;;;;;6.72;4.20;;;2.00;99.50;;;;;;4985387;28;20197;-81
2021/01/12 08:58:39;;;;;;;6.20;4.13;;;2.00;99.60;;;;;;4979610;28;20189;-78
2021/01/12 09:01:13;;;;;;;4.82;3.30;;;2.00;99.80;;;;;;4969398;28;20239;-80
2021/01/12 09:03:42;;;;;;;4.97;4.10;;;2.00;99.90;;;;;;4982726;28;20213;-79
2021/01/12 09:06:22;;;;;;;3.85;2.90;;;2.00;99.90;;;;;;4984748;28;20205;-79
2021/01/12 09:08:52;;;;;;;3.50;3.05;;;2.00;99.90;;;;;;4984068;28;20224;-80
2021/01/12 09:11:21;;;;;;;6.07;3.00;;;2.00;99.90;;;;;;4982924;28;20705;-77
2021/01/12 09:13:50;;;;;;;6.65;3.10;;;2.00;99.90;;;;;;4982644;28;20208;-79
2021/01/12 09:16:19;;;;;;;5.35;3.97;;;2.00;99.90;;;;;;4984788;28;20229;-81
2021/01/12 09:18:46;;;;;;;5.80;3.40;;;2.00;99.90;;;;;;4985673;28;20264;-79
2021/01/12 09:21:12;;;;;;;5.63;3.75;;;2.00;99.90;;;;;;4984948;28;20659;-80
2021/01/12 09:23:42;;;;;;;3.70;3.22;;;2.00;99.90;;;;;;4976363;28;20225;-79
2021/01/12 09:26:11;;;;;;;4.82;2.78;;;2.00;99.90;;;;;;4969963;28;20481;-79
2021/01/12 09:28:39;;;;;;;4.68;4.05;;;2.10;99.90;;;;;;4970229;29;20261;-78
2021/01/12 09:31:07;;;;;;;6.65;5.00;;;2.10;99.90;;;;;;4984344;28;20221;-80
2021/01/12 09:33:35;;;;;;;10.15;4.60;;;2.10;99.90;;;;;;4990553;28;20220;-78
2021/01/12 09:36:05;;;;;;;47.70;7.22;;;2.10;99.90;;;;;;4980059;28;20198;-79
2021/01/12 09:38:36;;;;;;;28.88;6.55;;;2.10;99.90;;;;;;4996691;28;20201;-80
2021/01/12 09:41:02;;;;;;;11.40;3.20;;;2.10;99.90;;;;;;4984688;28;20310;-80
2021/01/12 09:43:30;;;;;;;19.15;4.82;;;2.20;99.90;;;;;;4970107;29;20239;-80
2021/01/12 09:45:57;;;;;;;9.38;4.60;;;2.20;99.90;;;;;;4968309;28;20217;-79
2021/01/12 09:48:33;;;;;;;8.15;4.65;;;2.30;99.90;;;;;;4978526;28;20234;-80
2021/01/12 09:51:00;;;;;;;3.67;2.80;;;2.20;99.90;;;;;;4977918;29;20221;-79
2021/01/12 09:53:27;;;;;;;6.28;2.55;;;2.30;99.90;;;;;;4975065;28;20241;-79
2021/01/12 09:55:54;;;;;;;5.32;3.03;;;2.20;99.90;;;;;;4971503;29;20542;-79
2021/01/12 09:58:21;;;;;;;19.88;4.72;;;2.30;99.90;;;;;;4977789;28;20210;-78
2021/01/12 10:00:48;;;;;;;18.10;3.35;;;2.30;99.90;;;;;;4975592;28;20761;-80
2021/01/12 10:03:15;;;;;;;7.30;3.20;;;2.30;99.90;;;;;;4975637;29;20230;-79
2021/01/12 10:05:46;;;;;;;54.20;8.25;;;2.20;99.90;;;;;;4972157;29;20218;-80
2021/01/12 10:08:13;;;;;;;40.63;6.05;;;2.20;99.90;;;;;;4972547;29;20224;-79
2021/01/12 10:10:44;;;;;;;3.72;2.55;;;2.20;99.90;;;;;;4967401;29;20255;-79
2021/01/12 10:13:12;;;;;;;4.80;2.33;;;2.20;99.90;;;;;;4966736;29;20195;-79
2021/01/12 10:15:45;;;;;;;7.90;3.00;;;2.20;99.90;;;;;;4967537;29;20308;-79
2021/01/12 10:18:13;;;;;;;4.10;2.92;;;2.20;99.90;;;;;;4970834;29;20213;-80
2021/01/12 10:20:40;;;;;;;5.93;2.92;;;2.20;99.90;;;;;;4965323;29;20381;-79
2021/01/12 10:23:12;;;;;;;3.67;3.20;;;2.20;99.90;;;;;;4962143;29;20261;-79
2021/01/12 10:25:40;;;;;;;9.40;3.22;;;2.20;99.90;;;;;;4961769;29;20229;-81
2021/01/12 10:28:17;;;;;;;7.63;3.78;;;2.20;99.90;;;;;;4961850;29;20213;-78
2021/01/12 10:30:43;;;;;;;10.65;3.15;;;2.20;99.90;;;;;;4967227;29;20757;-81
2021/01/12 10:33:10;;;;;;;2.65;2.28;;;2.30;99.90;;;;;;4964678;29;20206;-80
2021/01/12 10:35:37;;;;;;;8.43;2.75;;;2.30;99.90;;;;;;4967213;29;20233;-81
2021/01/12 10:38:04;;;;;;;2.53;1.95;;;2.30;99.90;;;;;;4968114;29;20202;-80
2021/01/12 10:40:36;;;;;;;15.90;3.25;;;2.30;99.90;;;;;;4963223;29;20222;-79
2021/01/12 10:43:04;;;;;;;11.98;2.70;;;2.30;99.90;;;;;;4963893;29;20257;-79
2021/01/12 10:45:31;;;;;;;42.95;5.65;;;2.30;99.90;;;;;;4963214;28;20355;-81
2021/01/12 10:48:01;;;;;;;5.97;1.90;;;2.30;99.90;;;;;;4967918;29;20681;-81
2021/01/12 10:50:27;;;;;;;7.10;2.30;;;2.30;99.90;;;;;;4963888;29;20233;-80
2021/01/12 10:53:05;;;;;;;4.32;2.08;;;2.40;99.90;;;;;;4967796;29;20214;-80
2021/01/12 10:55:33;;;;;;;3.90;2.55;;;2.30;99.90;;;;;;4968567;29;20204;-82
2021/01/12 10:57:59;;;;;;;1.75;1.60;;;2.40;99.90;;;;;;4973985;29;20297;-81
2021/01/12 11:00:29;;;;;;;2.30;2.05;;;2.30;99.90;;;;;;4986223;28;20225;-81
2021/01/12 11:02:56;;;;;;;2.80;1.83;;;2.30;99.90;;;;;;4993490;28;20232;-81
2021/01/12 11:05:23;;;;;;;2.65;2.20;;;2.30;99.90;;;;;;4993042;28;20260;-79
2021/01/12 11:07:51;;;;;;;3.20;2.17;;;2.40;99.90;;;;;;4996374;28;20257;-81
2021/01/12 11:10:18;;;;;;;4.63;2.40;;;2.50;99.90;;;;;;4996767;28;20237;-80
2021/01/12 11:12:49;;;;;;;2.08;1.88;;;2.40;99.90;;;;;;4983307;28;20185;-81
2021/01/12 11:15:17;;;;;;;2.10;1.92;;;2.40;99.70;;;;;;4996995;28;20225;-82
2021/01/12 11:17:45;;;;;;;2.30;2.10;;;2.40;99.80;;;;;;4986175;28;20229;-80
2021/01/12 11:20:13;;;;;;;2.70;1.95;;;2.40;99.50;;;;;;4968112;29;20601;-80
2021/01/12 11:22:40;;;;;;;3.30;2.95;;;2.50;99.90;;;;;;4963768;29;20253;-80
2021/01/12 11:25:09;;;;;;;1.80;1.70;;;2.50;99.90;;;;;;4966752;29;20220;-80
2021/01/12 11:27:36;;;;;;;3.05;2.28;;;2.50;99.90;;;;;;4969989;29;20221;-80
2021/01/12 11:30:07;;;;;;;2.00;1.80;;;2.50;99.90;;;;;;4972266;28;20249;-80
2021/01/12 11:32:35;;;;;;;2.40;1.90;;;2.50;99.90;;;;;;4988795;28;20216;-81
2021/01/12 11:35:04;;;;;;;1.90;1.80;;;2.50;99.90;;;;;;4987293;28;20216;-80
2021/01/12 11:37:31;;;;;;;3.38;1.67;;;2.50;99.90;;;;;;4992326;28;20241;-81
2021/01/12 11:40:02;;;;;;;2.85;2.08;;;2.50;99.90;;;;;;4984658;28;20236;-80
2021/01/12 11:42:29;;;;;;;1.90;1.55;;;2.50;99.90;;;;;;4994452;28;20209;-82
2021/01/12 11:44:57;;;;;;;2.13;1.75;;;2.60;99.90;;;;;;4991611;28;20229;-81
2021/01/12 11:47:24;;;;;;;2.60;1.95;;;2.60;99.90;;;;;;4992338;28;20239;-79
2021/01/12 11:49:51;;;;;;;1.70;1.60;;;2.60;99.90;;;;;;4973691;28;20289;-81
2021/01/12 11:52:17;;;;;;;2.28;1.75;;;2.60;99.90;;;;;;4991297;28;20240;-78
2021/01/12 11:54:44;;;;;;;4.70;1.20;;;2.60;99.90;;;;;;4992622;28;20224;-80
2021/01/12 11:57:13;;;;;;;1.52;1.42;;;2.60;99.90;;;;;;4992381;28;20195;-79
2021/01/12 11:59:40;;;;;;;1.38;1.27;;;2.60;99.90;;;;;;4991365;28;20232;-81
2021/01/12 12:02:07;;;;;;;1.33;1.23;;;2.60;99.90;;;;;;4987618;28;20224;-81
2021/01/12 12:04:42;;;;;;;1.08;1.08;;;2.60;99.90;;;;;;4989263;28;20263;-80
2021/01/12 12:07:15;;;;;;;1.00;1.00;;;2.50;99.90;;;;;;4991831;28;20193;-80
2021/01/12 12:09:42;;;;;;;1.75;1.10;;;2.60;99.90;;;;;;4986414;28;20265;-80
2021/01/12 12:12:09;;;;;;;1.48;1.38;;;2.60;99.90;;;;;;5002149;28;20203;-81
2021/01/12 12:14:36;;;;;;;1.27;1.17;;;2.60;99.90;;;;;;5006370;28;20213;-80
2021/01/12 12:17:02;;;;;;;8.85;1.40;;;2.60;99.90;;;;;;5005092;28;20240;-79
2021/01/12 12:19:33;;;;;;;1.75;1.35;;;2.70;99.90;;;;;;5014449;28;20233;-80
2021/01/12 12:22:00;;;;;;;1.38;1.27;;;2.70;99.90;;;;;;5007777;28;20204;-81
2021/01/12 12:24:29;;;;;;;1.50;1.40;;;2.70;99.90;;;;;;5011138;28;20239;-82
2021/01/12 12:26:59;;;;;;;1.55;1.10;;;2.80;99.90;;;;;;5006784;28;20212;-81
2021/01/12 12:29:26;;;;;;;1.50;1.40;;;2.80;99.90;;;;;;5006852;28;20233;-80
2021/01/12 12:31:56;;;;;;;0.90;0.90;;;2.80;99.90;;;;;;5004329;28;20213;-81
2021/01/12 12:34:24;;;;;;;0.85;0.80;;;2.90;99.90;;;;;;5009733;28;20332;-81
2021/01/12 12:36:56;;;;;;;1.10;1.00;;;2.80;99.90;;;;;;5013241;28;20216;-81
2021/01/12 12:39:23;;;;;;;1.30;1.20;;;2.80;99.50;;;;;;5015180;28;20212;-79
2021/01/12 12:41:54;;;;;;;0.80;0.80;;;2.80;99.50;;;;;;5011484;28;20205;-82
2021/01/12 12:44:21;;;;;;;1.13;1.10;;;2.80;99.50;;;;;;5016386;28;20220;-80
2021/01/12 12:46:55;;;;;;;0.70;0.70;;;2.70;99.40;;;;;;5010759;28;20215;-81
2021/01/12 12:49:29;;;;;;;1.20;1.00;;;2.70;99.40;;;;;;5006595;28;20216;-82
2021/01/12 12:52:05;;;;;;;0.85;0.82;;;2.70;99.40;;;;;;4988676;28;20646;-80
2021/01/12 12:54:32;;;;;;;0.85;0.85;;;2.60;99.40;;;;;;4984593;28;20546;-80
2021/01/12 12:56:59;;;;;;;1.42;0.80;;;2.60;99.40;;;;;;4986171;28;20297;-80